createdAt,value
2018-09-18T00:00:25.998Z,994.84
2018-09-18T00:01:25.969Z,994.83
2018-09-18T00:02:25.954Z,994.84
2018-09-18T00:03:25.941Z,994.81
2018-09-18T00:04:25.916Z,994.82
2018-09-18T00:05:25.902Z,994.85
2018-09-18T00:06:25.883Z,994.81
2018-09-18T00:07:25.871Z,994.83
2018-09-18T00:08:25.841Z,994.83
2018-09-18T00:09:25.831Z,994.81
2018-09-18T00:10:25.819Z,994.84
2018-09-18T00:11:25.792Z,994.82
2018-09-18T00:12:25.771Z,994.83
2018-09-18T00:13:25.745Z,994.79
2018-09-18T00:14:25.733Z,994.80
2018-09-18T00:15:25.710Z,994.77
2018-09-18T00:16:25.687Z,994.79
2018-09-18T00:17:25.671Z,994.75
2018-09-18T00:18:25.652Z,994.74
2018-09-18T00:19:25.633Z,994.76
2018-09-18T00:20:25.620Z,994.71
2018-09-18T00:21:25.595Z,994.72
2018-09-18T00:22:25.589Z,994.71
2018-09-18T00:23:25.563Z,994.67
2018-09-18T00:24:25.544Z,994.69
2018-09-18T00:25:25.521Z,994.74
2018-09-18T00:26:25.499Z,994.70
2018-09-18T00:27:25.480Z,994.64
2018-09-18T00:28:25.476Z,994.66
2018-09-18T00:29:25.446Z,994.64
2018-09-18T00:30:25.431Z,994.63
2018-09-18T00:31:25.409Z,994.66
2018-09-18T00:32:25.392Z,994.64
2018-09-18T00:33:25.373Z,994.64
2018-09-18T00:34:25.354Z,994.59
2018-09-18T00:35:25.347Z,994.63
2018-09-18T00:36:25.319Z,994.62
2018-09-18T00:37:25.293Z,994.56
2018-09-18T00:38:25.274Z,994.60
2018-09-18T00:39:25.272Z,994.59
2018-09-18T00:40:25.245Z,994.58
2018-09-18T00:41:25.218Z,994.59
2018-09-18T00:42:25.204Z,994.61
2018-09-18T00:43:25.188Z,994.60
2018-09-18T00:44:25.173Z,994.58
2018-09-18T00:45:25.150Z,994.55
2018-09-18T00:46:25.125Z,994.57
2018-09-18T00:47:25.108Z,994.52
2018-09-18T00:48:25.095Z,994.58
2018-09-18T00:49:25.076Z,994.54
2018-09-18T00:50:25.060Z,994.56
2018-09-18T00:51:25.034Z,994.57
2018-09-18T00:52:25.019Z,994.55
2018-09-18T00:53:24.997Z,994.54
2018-09-18T00:54:24.996Z,994.50
2018-09-18T00:55:24.968Z,994.48
2018-09-18T00:56:24.938Z,994.52
2018-09-18T00:57:24.919Z,994.52
2018-09-18T00:58:24.900Z,994.51
2018-09-18T00:59:24.904Z,994.48
2018-09-18T01:00:24.865Z,994.49
2018-09-18T01:01:24.856Z,994.45
2018-09-18T01:02:24.824Z,994.45
2018-09-18T01:03:24.804Z,994.46
2018-09-18T01:04:24.785Z,994.44
2018-09-18T01:05:24.776Z,994.44
2018-09-18T01:06:24.756Z,994.39
2018-09-18T01:07:24.728Z,994.38
2018-09-18T01:08:24.717Z,994.39
2018-09-18T01:09:24.699Z,994.39
2018-09-18T01:10:24.680Z,994.35
2018-09-18T01:11:24.658Z,994.38
2018-09-18T01:12:24.639Z,994.39
2018-09-18T01:13:24.617Z,994.37
2018-09-18T01:14:24.598Z,994.39
2018-09-18T01:15:24.581Z,994.37
2018-09-18T01:16:24.572Z,994.36
2018-09-18T01:17:24.911Z,994.36
2018-09-18T01:18:24.531Z,994.35
2018-09-18T01:19:24.511Z,994.32
2018-09-18T01:20:24.492Z,994.34
2018-09-18T01:21:24.467Z,994.30
2018-09-18T01:22:24.448Z,994.32
2018-09-18T01:23:24.451Z,994.30
2018-09-18T01:24:24.425Z,994.27
2018-09-18T01:25:24.527Z,994.34
2018-09-18T01:26:24.412Z,994.33
2018-09-18T01:27:24.362Z,994.30
2018-09-18T01:28:24.339Z,994.33
2018-09-18T01:29:24.323Z,994.29
2018-09-18T01:30:24.304Z,994.33
2018-09-18T01:31:24.278Z,994.29
2018-09-18T01:32:24.258Z,994.32
2018-09-18T01:33:24.252Z,994.32
2018-09-18T01:34:24.233Z,994.32
2018-09-18T01:35:24.201Z,994.31
2018-09-18T01:36:24.181Z,994.36
2018-09-18T01:37:24.165Z,994.32
2018-09-18T01:38:24.153Z,994.33
2018-09-18T01:39:24.138Z,994.36
2018-09-18T01:40:24.111Z,994.36
2018-09-18T01:41:24.108Z,994.36
2018-09-18T01:42:24.068Z,994.40
2018-09-18T01:43:24.056Z,994.37
2018-09-18T01:44:24.036Z,994.33
2018-09-18T01:45:24.010Z,994.39
2018-09-18T01:46:23.994Z,994.35
2018-09-18T01:47:23.988Z,994.34
2018-09-18T01:48:23.955Z,994.31
2018-09-18T01:49:23.967Z,994.33
2018-09-18T01:50:24.331Z,994.32
2018-09-18T01:51:23.898Z,994.28
2018-09-18T01:52:23.886Z,994.30
2018-09-18T01:53:23.892Z,994.27
2018-09-18T01:54:23.845Z,994.29
2018-09-18T01:55:23.836Z,994.28
2018-09-18T01:56:23.801Z,994.29
2018-09-18T01:57:23.788Z,994.31
2018-09-18T01:58:23.786Z,994.30
2018-09-18T01:59:23.744Z,994.30
2018-09-18T02:00:23.724Z,994.31
2018-09-18T02:01:23.715Z,994.34
2018-09-18T02:02:23.702Z,994.31
2018-09-18T02:03:23.673Z,994.31
2018-09-18T02:04:23.650Z,994.27
2018-09-18T02:05:23.650Z,994.31
2018-09-18T02:06:23.612Z,994.31
2018-09-18T02:07:23.606Z,994.30
2018-09-18T02:08:23.573Z,994.31
2018-09-18T02:09:23.558Z,994.32
2018-09-18T02:10:23.535Z,994.33
2018-09-18T02:11:23.513Z,994.33
2018-09-18T02:12:23.509Z,994.30
2018-09-18T02:13:23.471Z,994.27
2018-09-18T02:14:23.456Z,994.26
2018-09-18T02:15:23.442Z,994.29
2018-09-18T02:16:23.414Z,994.27
2018-09-18T02:17:23.395Z,994.27
2018-09-18T02:18:23.379Z,994.28
2018-09-18T02:19:23.356Z,994.24
2018-09-18T02:20:23.337Z,994.28
2018-09-18T02:21:23.321Z,994.25
2018-09-18T02:22:23.300Z,994.24
2018-09-18T02:23:23.289Z,994.20
2018-09-18T02:24:23.259Z,994.19
2018-09-18T02:25:23.242Z,994.15
2018-09-18T02:26:23.247Z,994.19
2018-09-18T02:27:23.212Z,994.18
2018-09-18T02:28:23.196Z,994.12
2018-09-18T02:29:23.164Z,994.15
2018-09-18T02:30:23.142Z,994.13
2018-09-18T02:31:23.121Z,994.10
2018-09-18T02:32:23.100Z,994.11
2018-09-18T02:33:23.100Z,994.08
2018-09-18T02:34:23.057Z,994.08
2018-09-18T02:35:23.050Z,994.06
2018-09-18T02:36:23.022Z,994.07
2018-09-18T02:37:23.061Z,994.05
2018-09-18T02:38:22.983Z,994.06
2018-09-18T02:39:22.967Z,994.08
2018-09-18T02:40:22.944Z,994.14
2018-09-18T02:41:22.926Z,994.07
2018-09-18T02:42:22.913Z,994.10
2018-09-18T02:43:22.881Z,994.08
2018-09-18T02:44:22.872Z,994.16
2018-09-18T02:45:22.846Z,994.11
2018-09-18T02:46:22.827Z,994.14
2018-09-18T02:47:22.805Z,994.20
2018-09-18T02:48:22.795Z,994.17
2018-09-18T02:49:22.770Z,994.16
2018-09-18T02:50:22.751Z,994.19
2018-09-18T02:51:22.730Z,994.19
2018-09-18T02:52:22.708Z,994.20
2018-09-18T02:53:22.702Z,994.23
2018-09-18T02:54:22.696Z,994.23
2018-09-18T02:55:22.648Z,994.20
2018-09-18T02:56:22.635Z,994.17
2018-09-18T02:57:22.606Z,994.18
2018-09-18T02:58:22.583Z,994.15
2018-09-18T02:59:22.564Z,994.19
2018-09-18T03:00:22.545Z,994.17
2018-09-18T03:01:22.529Z,994.17
2018-09-18T03:02:22.510Z,994.17
2018-09-18T03:03:22.488Z,994.19
2018-09-18T03:04:22.463Z,994.16
2018-09-18T03:05:23.151Z,994.23
2018-09-18T03:06:22.421Z,994.17
2018-09-18T03:07:22.402Z,994.13
2018-09-18T03:08:22.384Z,994.17
2018-09-18T03:09:22.370Z,994.16
2018-09-18T03:10:22.354Z,994.16
2018-09-18T03:11:22.403Z,994.15
2018-09-18T03:12:22.310Z,994.12
2018-09-18T03:13:22.284Z,994.15
2018-09-18T03:14:22.263Z,994.14
2018-09-18T03:15:22.240Z,994.11
2018-09-18T03:16:22.241Z,994.12
2018-09-18T03:17:22.207Z,994.13
2018-09-18T03:18:22.197Z,994.12
2018-09-18T03:19:22.179Z,994.11
2018-09-18T03:20:22.151Z,994.13
2018-09-18T03:21:22.126Z,994.16
2018-09-18T03:22:22.109Z,994.10
2018-09-18T03:23:22.088Z,994.11
2018-09-18T03:24:22.084Z,994.12
2018-09-18T03:25:22.053Z,994.10
2018-09-18T03:26:22.040Z,994.09
2018-09-18T03:27:22.057Z,994.09
2018-09-18T03:28:22.001Z,994.07
2018-09-18T03:29:21.960Z,994.08
2018-09-18T03:30:21.947Z,994.07
2018-09-18T03:31:21.927Z,994.06
2018-09-18T03:32:21.905Z,994.07
2018-09-18T03:33:21.905Z,994.09
2018-09-18T03:34:21.859Z,994.07
2018-09-18T03:35:21.841Z,994.07
2018-09-18T03:36:21.824Z,994.07
2018-09-18T03:37:21.823Z,994.04
2018-09-18T03:38:21.786Z,994.08
2018-09-18T03:39:21.767Z,994.05
2018-09-18T03:40:21.747Z,994.04
2018-09-18T03:41:21.729Z,994.03
2018-09-18T03:42:21.700Z,994.03
2018-09-18T03:43:21.690Z,994.02
2018-09-18T03:44:21.660Z,994.04
2018-09-18T03:45:21.640Z,994.03
2018-09-18T03:46:21.627Z,994.04
2018-09-18T03:47:21.599Z,994.04
2018-09-18T03:48:21.581Z,994.04
2018-09-18T03:49:21.566Z,994.06
2018-09-18T03:50:21.545Z,994.10
2018-09-18T03:51:21.522Z,994.12
2018-09-18T03:52:21.503Z,994.11
2018-09-18T03:53:21.505Z,994.11
2018-09-18T03:54:21.463Z,994.13
2018-09-18T03:55:21.446Z,994.13
2018-09-18T03:56:21.422Z,994.10
2018-09-18T03:57:21.400Z,994.11
2018-09-18T03:58:21.393Z,994.09
2018-09-18T03:59:21.370Z,994.08
2018-09-18T04:00:21.368Z,994.08
2018-09-18T04:01:21.326Z,994.09
2018-09-18T04:02:21.305Z,994.06
2018-09-18T04:03:21.284Z,994.02
2018-09-18T04:04:21.277Z,994.05
2018-09-18T04:05:21.243Z,994.01
2018-09-18T04:06:21.216Z,994.02
2018-09-18T04:07:21.213Z,994.03
2018-09-18T04:08:21.181Z,994.02
2018-09-18T04:09:21.175Z,993.99
2018-09-18T04:10:21.146Z,993.97
2018-09-18T04:11:21.133Z,994.01
2018-09-18T04:12:21.106Z,994.02
2018-09-18T04:13:21.091Z,994.03
2018-09-18T04:14:21.059Z,994.00
2018-09-18T04:15:21.040Z,994.01
2018-09-18T04:16:21.022Z,994.02
2018-09-18T04:17:21.079Z,994.01
2018-09-18T04:18:20.985Z,994.04
2018-09-18T04:19:20.950Z,993.97
2018-09-18T04:20:20.941Z,993.98
2018-09-18T04:21:20.916Z,994.01
2018-09-18T04:22:20.896Z,994.01
2018-09-18T04:23:20.893Z,994.03
2018-09-18T04:24:20.854Z,994.06
2018-09-18T04:25:20.839Z,994.06
2018-09-18T04:26:20.826Z,994.05
2018-09-18T04:27:20.807Z,994.10
2018-09-18T04:28:20.790Z,994.05
2018-09-18T04:29:20.768Z,994.07
2018-09-18T04:30:20.736Z,994.10
2018-09-18T04:31:20.720Z,994.13
2018-09-18T04:32:20.701Z,994.10
2018-09-18T04:33:20.686Z,994.12
2018-09-18T04:34:20.661Z,994.12
2018-09-18T04:35:20.637Z,994.12
2018-09-18T04:36:20.619Z,994.12
2018-09-18T04:37:20.594Z,994.14
2018-09-18T04:38:20.581Z,994.08
2018-09-18T04:39:21.178Z,994.08
2018-09-18T04:40:20.542Z,994.06
2018-09-18T04:41:20.526Z,994.11
2018-09-18T04:42:20.512Z,994.09
2018-09-18T04:43:20.482Z,994.09
2018-09-18T04:44:20.473Z,994.09
2018-09-18T04:45:20.441Z,994.02
2018-09-18T04:46:20.413Z,994.03
2018-09-18T04:47:20.402Z,994.02
2018-09-18T04:48:20.382Z,993.99
2018-09-18T04:49:20.358Z,994.08
2018-09-18T04:50:20.342Z,994.03
2018-09-18T04:51:20.319Z,994.07
2018-09-18T04:52:20.317Z,994.07
2018-09-18T04:53:20.287Z,994.07
2018-09-18T04:54:20.262Z,994.13
2018-09-18T04:55:20.252Z,994.11
2018-09-18T04:56:20.220Z,994.13
2018-09-18T04:57:20.188Z,994.11
2018-09-18T04:58:20.182Z,994.13
2018-09-18T04:59:20.167Z,994.12
2018-09-18T05:00:20.137Z,994.10
2018-09-18T05:01:20.114Z,994.11
2018-09-18T05:02:20.093Z,994.09
2018-09-18T05:03:20.115Z,994.14
2018-09-18T05:04:20.112Z,994.11
2018-09-18T05:05:20.109Z,994.15
2018-09-18T05:06:20.049Z,994.14
2018-09-18T05:07:19.994Z,994.13
2018-09-18T05:08:19.974Z,994.15
2018-09-18T05:09:19.981Z,994.19
2018-09-18T05:10:19.956Z,994.20
2018-09-18T05:11:19.962Z,994.20
2018-09-18T05:12:19.933Z,994.21
2018-09-18T05:13:19.874Z,994.21
2018-09-18T05:14:19.854Z,994.22
2018-09-18T05:15:19.829Z,994.21
2018-09-18T05:16:19.812Z,994.18
2018-09-18T05:17:19.798Z,994.21
2018-09-18T05:18:19.785Z,994.23
2018-09-18T05:19:19.775Z,994.24
2018-09-18T05:20:19.726Z,994.20
2018-09-18T05:21:19.708Z,994.22
2018-09-18T05:22:19.691Z,994.22
2018-09-18T05:23:19.666Z,994.23
2018-09-18T05:24:19.649Z,994.20
2018-09-18T05:25:19.630Z,994.19
2018-09-18T05:26:19.612Z,994.21
2018-09-18T05:27:19.596Z,994.22
2018-09-18T05:28:19.570Z,994.18
2018-09-18T05:29:19.551Z,994.21
2018-09-18T05:30:19.529Z,994.24
2018-09-18T05:31:19.509Z,994.24
2018-09-18T05:32:19.490Z,994.23
2018-09-18T05:33:19.473Z,994.21
2018-09-18T05:34:19.447Z,994.23
2018-09-18T05:35:19.444Z,994.24
2018-09-18T05:36:19.416Z,994.24
2018-09-18T05:37:19.399Z,994.26
2018-09-18T05:38:19.374Z,994.28
2018-09-18T05:39:19.348Z,994.27
2018-09-18T05:40:19.329Z,994.27
2018-09-18T05:41:19.332Z,994.32
2018-09-18T05:42:19.290Z,994.37
2018-09-18T05:43:19.269Z,994.36
2018-09-18T05:44:19.257Z,994.38
2018-09-18T05:45:19.248Z,994.37
2018-09-18T05:46:19.223Z,994.35
2018-09-18T05:47:19.196Z,994.35
2018-09-18T05:48:19.203Z,994.39
2018-09-18T05:49:19.187Z,994.37
2018-09-18T05:50:19.126Z,994.34
2018-09-18T05:51:19.129Z,994.37
2018-09-18T05:52:19.087Z,994.35
2018-09-18T05:53:19.081Z,994.35
2018-09-18T05:54:19.054Z,994.33
2018-09-18T05:55:19.033Z,994.37
2018-09-18T05:56:19.010Z,994.35
2018-09-18T05:57:18.991Z,994.38
2018-09-18T05:58:18.968Z,994.40
2018-09-18T05:59:18.971Z,994.39
2018-09-18T06:00:18.934Z,994.43
2018-09-18T06:01:18.920Z,994.43
2018-09-18T06:02:18.932Z,994.43
2018-09-18T06:03:18.875Z,994.42
2018-09-18T06:04:18.864Z,994.47
2018-09-18T06:05:18.839Z,994.48
2018-09-18T06:06:18.824Z,994.53
2018-09-18T06:07:18.813Z,994.49
2018-09-18T06:08:18.775Z,994.51
2018-09-18T06:09:18.753Z,994.54
2018-09-18T06:10:18.736Z,994.58
2018-09-18T06:11:18.711Z,994.63
2018-09-18T06:12:18.704Z,994.63
2018-09-18T06:13:18.679Z,994.64
2018-09-18T06:14:18.687Z,994.62
2018-09-18T06:15:18.639Z,994.66
2018-09-18T06:16:18.628Z,994.68
2018-09-18T06:17:18.602Z,994.64
2018-09-18T06:18:18.602Z,994.66
2018-09-18T06:19:18.650Z,994.66
2018-09-18T06:20:18.548Z,994.68
2018-09-18T06:21:18.525Z,994.69
2018-09-18T06:22:18.504Z,994.67
2018-09-18T06:23:18.484Z,994.65
2018-09-18T06:24:18.471Z,994.66
2018-09-18T06:25:18.452Z,994.65
2018-09-18T06:26:18.505Z,994.64
2018-09-18T06:27:18.409Z,994.67
2018-09-18T06:28:18.391Z,994.66
2018-09-18T06:29:18.409Z,994.73
2018-09-18T06:30:18.352Z,994.64
2018-09-18T06:31:18.334Z,994.68
2018-09-18T06:32:18.326Z,994.64
2018-09-18T06:33:18.304Z,994.64
2018-09-18T06:34:18.281Z,994.66
2018-09-18T06:35:18.258Z,994.67
2018-09-18T06:36:18.235Z,994.66
2018-09-18T06:37:18.229Z,994.69
2018-09-18T06:38:18.200Z,994.68
2018-09-18T06:39:18.190Z,994.67
2018-09-18T06:40:18.168Z,994.68
2018-09-18T06:41:18.155Z,994.68
2018-09-18T06:42:18.201Z,994.62
2018-09-18T06:43:18.114Z,994.67
2018-09-18T06:44:18.092Z,994.68
2018-09-18T06:45:18.092Z,994.67
2018-09-18T06:46:18.066Z,994.72
2018-09-18T06:47:18.038Z,994.72
2018-09-18T06:48:18.019Z,994.73
2018-09-18T06:49:18.000Z,994.74
2018-09-18T06:50:18.028Z,994.69
2018-09-18T06:51:17.968Z,994.74
2018-09-18T06:52:17.948Z,994.74
2018-09-18T06:53:17.939Z,994.73
2018-09-18T06:54:17.919Z,994.69
2018-09-18T06:55:17.897Z,994.76
2018-09-18T06:56:17.878Z,994.77
2018-09-18T06:57:17.865Z,994.77
2018-09-18T06:58:17.840Z,994.78
2018-09-18T06:59:17.846Z,994.83
2018-09-18T07:00:17.844Z,994.80
2018-09-18T07:01:17.792Z,994.79
2018-09-18T07:02:17.772Z,994.80
2018-09-18T07:03:17.757Z,994.85
2018-09-18T07:04:17.733Z,994.89
2018-09-18T07:05:17.721Z,994.86
2018-09-18T07:06:17.710Z,994.85
2018-09-18T07:07:17.696Z,994.86
2018-09-18T07:08:17.667Z,994.89
2018-09-18T07:09:17.648Z,994.89
2018-09-18T07:10:17.635Z,994.89
2018-09-18T07:11:17.632Z,994.89
2018-09-18T07:12:17.600Z,994.89
2018-09-18T07:13:17.584Z,994.85
2018-09-18T07:14:17.576Z,994.86
2018-09-18T07:15:17.581Z,994.87
2018-09-18T07:16:17.539Z,994.88
2018-09-18T07:17:17.520Z,994.90
2018-09-18T07:18:17.501Z,994.90
2018-09-18T07:19:17.514Z,994.92
2018-09-18T07:20:17.471Z,994.87
2018-09-18T07:21:17.448Z,994.93
2018-09-18T07:22:17.435Z,994.93
2018-09-18T07:23:17.415Z,994.97
2018-09-18T07:24:17.406Z,994.97
2018-09-18T07:25:17.393Z,994.99
2018-09-18T07:26:17.379Z,995.00
2018-09-18T07:27:17.361Z,995.00
2018-09-18T07:28:17.374Z,994.96
2018-09-18T07:29:17.379Z,994.97
2018-09-18T07:30:17.307Z,994.99
2018-09-18T07:31:17.323Z,995.01
2018-09-18T07:32:17.288Z,995.03
2018-09-18T07:33:17.269Z,995.05
2018-09-18T07:34:17.251Z,995.03
2018-09-18T07:35:17.250Z,995.03
2018-09-18T07:36:17.241Z,995.09
2018-09-18T07:37:17.211Z,995.10
2018-09-18T07:38:17.196Z,995.05
2018-09-18T07:39:17.173Z,995.13
2018-09-18T07:40:17.176Z,995.12
2018-09-18T07:41:17.148Z,995.11
2018-09-18T07:42:17.139Z,995.10
2018-09-18T07:43:17.122Z,995.16
2018-09-18T07:44:17.116Z,995.21
2018-09-18T07:45:17.107Z,995.13
2018-09-18T07:46:17.111Z,995.16
2018-09-18T07:47:17.104Z,995.19
2018-09-18T07:48:17.065Z,995.19
2018-09-18T07:49:17.045Z,995.21
2018-09-18T07:50:17.731Z,995.24
2018-09-18T07:51:17.052Z,995.20
2018-09-18T07:52:17.035Z,995.21
2018-09-18T07:53:17.003Z,995.19
2018-09-18T07:54:16.994Z,995.20
2018-09-18T07:55:16.978Z,995.20
2018-09-18T07:56:16.962Z,995.20
2018-09-18T07:57:16.958Z,995.19
2018-09-18T07:58:16.959Z,995.17
2018-09-18T07:59:16.940Z,995.18
2018-09-18T08:00:16.940Z,995.14
2018-09-18T08:01:16.920Z,995.19
2018-09-18T08:02:16.907Z,995.19
2018-09-18T08:03:17.004Z,995.17
2018-09-18T08:04:16.886Z,995.23
2018-09-18T08:05:16.874Z,995.26
2018-09-18T08:06:16.871Z,995.24
2018-09-18T08:07:16.863Z,995.22
2018-09-18T08:08:16.849Z,995.23
2018-09-18T08:09:16.852Z,995.24
2018-09-18T08:10:16.839Z,995.26
2018-09-18T08:11:16.820Z,995.28
2018-09-18T08:12:16.813Z,995.28
2018-09-18T08:13:16.813Z,995.24
2018-09-18T08:14:16.804Z,995.24
2018-09-18T08:15:16.795Z,995.24
2018-09-18T08:16:16.787Z,995.24
2018-09-18T08:17:16.797Z,995.24
2018-09-18T08:18:16.768Z,995.27
2018-09-18T08:19:16.767Z,995.25
2018-09-18T08:20:16.752Z,995.30
2018-09-18T08:21:16.740Z,995.28
2018-09-18T08:22:16.734Z,995.29
2018-09-18T08:23:16.765Z,995.31
2018-09-18T08:24:16.724Z,995.31
2018-09-18T08:25:16.825Z,995.27
2018-09-18T08:26:16.702Z,995.29
2018-09-18T08:27:16.698Z,995.27
2018-09-18T08:28:16.692Z,995.30
2018-09-18T08:29:16.691Z,995.30
2018-09-18T08:30:16.675Z,995.32
2018-09-18T08:31:16.678Z,995.27
2018-09-18T08:32:16.662Z,995.32
2018-09-18T08:33:16.658Z,995.32
2018-09-18T08:34:16.659Z,995.34
2018-09-18T08:35:16.653Z,995.34
2018-09-18T08:36:16.637Z,995.30
2018-09-18T08:37:16.634Z,995.33
2018-09-18T08:38:16.624Z,995.37
2018-09-18T08:39:16.617Z,995.37
2018-09-18T08:40:16.620Z,995.36
2018-09-18T08:41:16.635Z,995.37
2018-09-18T08:42:16.595Z,995.37
2018-09-18T08:43:16.594Z,995.40
2018-09-18T08:44:16.586Z,995.35
2018-09-18T08:45:16.581Z,995.36
2018-09-18T08:46:16.652Z,995.37
2018-09-18T08:47:16.591Z,995.32
2018-09-18T08:48:16.577Z,995.35
2018-09-18T08:49:16.558Z,995.40
2018-09-18T08:50:16.543Z,995.34
2018-09-18T08:51:16.569Z,995.39
2018-09-18T08:52:16.546Z,995.36
2018-09-18T08:53:16.541Z,995.34
2018-09-18T08:54:16.524Z,995.35
2018-09-18T08:55:16.516Z,995.34
2018-09-18T08:56:16.530Z,995.34
2018-09-18T08:57:16.536Z,995.34
2018-09-18T08:58:16.512Z,995.36
2018-09-18T08:59:16.486Z,995.33
2018-09-18T09:00:16.484Z,995.36
2018-09-18T09:01:16.475Z,995.34
2018-09-18T09:02:16.473Z,995.32
2018-09-18T09:03:16.474Z,995.30
2018-09-18T09:04:16.487Z,995.33
2018-09-18T09:05:16.456Z,995.29
2018-09-18T09:06:16.443Z,995.30
2018-09-18T09:07:16.468Z,995.29
2018-09-18T09:08:16.608Z,995.26
2018-09-18T09:09:16.511Z,995.32
2018-09-18T09:10:16.472Z,995.25
2018-09-18T09:11:16.437Z,995.30
2018-09-18T09:12:16.405Z,995.27
2018-09-18T09:13:16.402Z,995.26
2018-09-18T09:14:16.527Z,995.25
2018-09-18T09:15:16.407Z,995.25
2018-09-18T09:16:16.412Z,995.24
2018-09-18T09:17:16.383Z,995.23
2018-09-18T09:18:16.441Z,995.24
2018-09-18T09:19:16.376Z,995.25
2018-09-18T09:20:16.373Z,995.23
2018-09-18T09:21:16.439Z,995.22
2018-09-18T09:22:16.420Z,995.26
2018-09-18T09:23:16.352Z,995.24
2018-09-18T09:24:16.367Z,995.23
2018-09-18T09:25:16.360Z,995.21
2018-09-18T09:26:16.426Z,995.23
2018-09-18T09:27:16.358Z,995.21
2018-09-18T09:28:16.326Z,995.28
2018-09-18T09:29:16.311Z,995.27
2018-09-18T09:30:16.303Z,995.27
2018-09-18T09:31:16.315Z,995.25
2018-09-18T09:32:16.473Z,995.23
2018-09-18T09:33:16.286Z,995.21
2018-09-18T09:34:16.287Z,995.22
2018-09-18T09:35:16.280Z,995.23
2018-09-18T09:36:16.300Z,995.24
2018-09-18T09:37:16.340Z,995.22
2018-09-18T09:38:16.272Z,995.23
2018-09-18T09:39:16.255Z,995.24
2018-09-18T09:40:16.248Z,995.24
2018-09-18T09:41:16.245Z,995.25
2018-09-18T09:42:16.257Z,995.18
2018-09-18T09:43:16.287Z,995.21
2018-09-18T09:44:16.225Z,995.18
2018-09-18T09:45:16.229Z,995.16
2018-09-18T09:46:16.224Z,995.11
2018-09-18T09:47:16.218Z,995.13
2018-09-18T09:48:16.213Z,995.13
2018-09-18T09:49:16.207Z,995.09
2018-09-18T09:50:16.197Z,995.13
2018-09-18T09:51:16.269Z,995.15
2018-09-18T09:52:16.184Z,995.10
2018-09-18T09:53:16.184Z,995.15
2018-09-18T09:54:16.181Z,995.09
2018-09-18T09:55:16.165Z,995.13
2018-09-18T09:56:16.172Z,995.15
2018-09-18T09:57:16.162Z,995.10
2018-09-18T09:58:16.162Z,995.11
2018-09-18T09:59:16.155Z,995.12
2018-09-18T10:00:16.152Z,995.15
2018-09-18T10:01:16.151Z,995.13
2018-09-18T10:02:16.140Z,995.13
2018-09-18T10:03:16.133Z,995.16
2018-09-18T10:04:16.146Z,995.15
2018-09-18T10:05:16.124Z,995.10
2018-09-18T10:06:16.127Z,995.11
2018-09-18T10:07:16.114Z,995.14
2018-09-18T10:08:16.108Z,995.13
2018-09-18T10:09:16.124Z,995.10
2018-09-18T10:10:16.108Z,995.07
2018-09-18T10:11:16.100Z,995.07
2018-09-18T10:12:16.095Z,995.03
2018-09-18T10:13:16.089Z,995.09
2018-09-18T10:14:16.090Z,995.10
2018-09-18T10:15:16.107Z,995.05
2018-09-18T10:16:16.082Z,995.07
2018-09-18T10:17:16.078Z,995.06
2018-09-18T10:18:16.082Z,995.03
2018-09-18T10:19:16.083Z,995.01
2018-09-18T10:20:16.066Z,995.02
2018-09-18T10:21:16.060Z,994.99
2018-09-18T10:22:16.050Z,995.01
2018-09-18T10:23:16.054Z,995.03
2018-09-18T10:24:16.043Z,995.00
2018-09-18T10:25:16.057Z,995.00
2018-09-18T10:26:16.178Z,995.09
2018-09-18T10:27:16.047Z,995.07
2018-09-18T10:28:16.037Z,995.06
2018-09-18T10:29:16.035Z,995.08
2018-09-18T10:30:16.031Z,995.04
2018-09-18T10:31:16.042Z,995.01
2018-09-18T10:32:16.026Z,995.05
2018-09-18T10:33:16.018Z,995.06
2018-09-18T10:34:16.053Z,995.07
2018-09-18T10:35:16.015Z,995.09
2018-09-18T10:36:16.005Z,995.07
2018-09-18T10:37:16.024Z,995.02
2018-09-18T10:38:16.030Z,994.99
2018-09-18T10:39:16.025Z,995.01
2018-09-18T10:40:16.022Z,995.01
2018-09-18T10:41:16.136Z,994.96
2018-09-18T10:42:16.024Z,994.96
2018-09-18T10:43:16.006Z,995.01
2018-09-18T10:44:15.999Z,994.97
2018-09-18T10:45:15.980Z,994.98
2018-09-18T10:46:15.980Z,994.95
2018-09-18T10:47:15.976Z,994.96
2018-09-18T10:48:15.985Z,994.94
2018-09-18T10:49:15.983Z,994.97
2018-09-18T10:50:15.973Z,994.90
2018-09-18T10:51:15.967Z,994.93
2018-09-18T10:52:15.964Z,994.85
2018-09-18T10:53:15.964Z,994.84
2018-09-18T10:54:15.977Z,994.83
2018-09-18T10:55:16.016Z,994.87
2018-09-18T10:56:15.964Z,994.83
2018-09-18T10:57:15.954Z,994.80
2018-09-18T10:58:15.954Z,994.83
2018-09-18T10:59:15.951Z,994.88
2018-09-18T11:00:15.981Z,994.88
2018-09-18T11:01:15.974Z,994.86
2018-09-18T11:02:16.142Z,994.87
2018-09-18T11:03:15.963Z,994.84
2018-09-18T11:04:15.954Z,994.86
2018-09-18T11:05:15.954Z,994.84
2018-09-18T11:06:15.956Z,994.75
2018-09-18T11:07:16.011Z,994.82
2018-09-18T11:08:15.989Z,994.75
2018-09-18T11:09:16.060Z,994.83
2018-09-18T11:10:15.958Z,994.87
2018-09-18T11:11:16.038Z,994.92
2018-09-18T11:12:16.008Z,994.88
2018-09-18T11:13:15.945Z,994.82
2018-09-18T11:14:16.026Z,994.82
2018-09-18T11:15:15.964Z,994.81
2018-09-18T11:16:15.985Z,994.79
2018-09-18T11:17:15.935Z,994.79
2018-09-18T11:18:16.006Z,994.88
2018-09-18T11:19:15.971Z,994.83
2018-09-18T11:20:15.970Z,994.78
2018-09-18T11:21:16.035Z,994.80
2018-09-18T11:22:15.984Z,994.77
2018-09-18T11:23:15.959Z,994.75
2018-09-18T11:24:16.056Z,994.75
2018-09-18T11:25:15.959Z,994.74
2018-09-18T11:26:15.947Z,994.70
2018-09-18T11:27:15.942Z,994.67
2018-09-18T11:28:15.932Z,994.68
2018-09-18T11:29:15.986Z,994.64
2018-09-18T11:30:15.954Z,994.63
2018-09-18T11:31:16.015Z,994.63
2018-09-18T11:32:15.953Z,994.59
2018-09-18T11:33:15.955Z,994.52
2018-09-18T11:34:15.955Z,994.55
2018-09-18T11:35:16.006Z,994.58
2018-09-18T11:36:16.060Z,994.63
2018-09-18T11:37:16.044Z,994.61
2018-09-18T11:38:16.009Z,994.62
2018-09-18T11:39:15.939Z,994.59
2018-09-18T11:40:16.134Z,994.53
2018-09-18T11:41:15.935Z,994.58
2018-09-18T11:42:15.932Z,994.59
2018-09-18T11:43:15.938Z,994.56
2018-09-18T11:44:15.935Z,994.55
2018-09-18T11:45:15.942Z,994.60
2018-09-18T11:46:15.939Z,994.56
2018-09-18T11:47:15.939Z,994.56
2018-09-18T11:48:15.949Z,994.54
2018-09-18T11:49:15.961Z,994.52
2018-09-18T11:50:15.954Z,994.49
2018-09-18T11:51:15.968Z,994.51
2018-09-18T11:52:15.965Z,994.54
2018-09-18T11:53:15.938Z,994.49
2018-09-18T11:54:15.958Z,994.49
2018-09-18T11:55:15.955Z,994.54
2018-09-18T11:56:15.948Z,994.48
2018-09-18T11:57:16.028Z,994.49
2018-09-18T11:58:15.991Z,994.42
2018-09-18T11:59:15.955Z,994.42
2018-09-18T12:00:15.955Z,994.46
2018-09-18T12:01:15.958Z,994.53
2018-09-18T12:02:15.955Z,994.46
2018-09-18T12:03:16.063Z,994.51
2018-09-18T12:04:15.977Z,994.48
2018-09-18T12:05:16.082Z,994.41
2018-09-18T12:06:15.964Z,994.49
2018-09-18T12:07:15.968Z,994.43
2018-09-18T12:08:15.971Z,994.42
2018-09-18T12:09:16.028Z,994.39
2018-09-18T12:10:16.030Z,994.50
2018-09-18T12:11:16.013Z,994.41
2018-09-18T12:12:15.974Z,994.40
2018-09-18T12:13:15.968Z,994.40
2018-09-18T12:14:15.972Z,994.37
2018-09-18T12:15:15.974Z,994.36
2018-09-18T12:16:15.984Z,994.38
2018-09-18T12:17:15.984Z,994.31
2018-09-18T12:18:15.998Z,994.29
2018-09-18T12:19:15.980Z,994.31
2018-09-18T12:20:15.981Z,994.32
2018-09-18T12:21:15.980Z,994.37
2018-09-18T12:22:16.069Z,994.31
2018-09-18T12:23:15.989Z,994.33
2018-09-18T12:24:15.984Z,994.33
2018-09-18T12:25:15.990Z,994.36
2018-09-18T12:26:15.993Z,994.33
2018-09-18T12:27:15.990Z,994.28
2018-09-18T12:28:16.003Z,994.33